Oshawa Airport
CYOO : now visible

Airfield :











YOU CAN JOIN US ON...

 
LOGIN :

Register | Disclaimer

   EN    FR    IT 

 









Legend :    VFR   Marginal VFR   IFR   Intensive IFR   Very Intensive IFR
Visi :
Ceiling :
>= 8 km
>= 3000ft
5 to 8 km
1000 to 3000 ft
1500m to 5 km
500 to 1000 ft
800 to 1500m
200 to 500 ft
< 800m
< 200 ft
Symbols :   Thunderstorms  Fog  Heavy snow  Heavy precipitations  Wind > 20 kt






- Airport Elevation : 459 ft
- IATA code : YOO


CYOO - Oshawa

CURRENT METAR :
  • 010431Z AUTO 34013G18KT 9SM -RA OVC034 02/02 A2943 RMK SLP974

EXPIRED METARs :
  • 010400Z AUTO 34013G19KT 8SM OVC032 02/02 A2943 RMK SLP976
  • 010331Z AUTO 34013G22KT 6SM BR FEW009 OVC030 02/02 A2943 RMK SLP974
  • 010300Z AUTO 35015G21KT 5SM BR FEW009 OVC030 02/02 A2943 RMK SLP974
  • 010259Z AUTO 35015G20KT 5SM BR FEW009 OVC030 02/02 A2943 RMK SLP975

TAF TAF CYOO
Valid from the 01 at 02:00 until the 01 at 14:00 UTC


010138Z 0102/0114 35015G25KT 6SM -RA BR SCT012 OVC030
TEMPO 0102/0104 4SM -RA BR OVC012
FM010400 36012G22KT 21/2SM -RASN BR BKN012 OVC025
TEMPO 0104/0107 6SM -RA SCT012 OVC025
FM010700 35012G22KT 11/2SM -SN OVC012
TEMPO 0107/0114 3SM -SN OVC025 RMK FCST BASED ON AUTO OBS. NXT FCST BY 010800Z
CZYZ FIR / North America



MET'MAP, your aeronautical weather chart ! - Copyright ORBIFLY December 2007 - Disclaimer

ORBIFLY MET'MAP TEAM :

Programming & Development : Alexandra Zaïnal
Concept & original design : Baudouin d'Aumeries
Assistance for programming : Marc-Olivier Méhu
Technical & hardware support : Manuel Goepfert

Contact : metmap@orbifly.com




SOURCES & CREDITS :

   NOAA       Earth
Advisory